PWSweather.com
Personal Weather Stations
Station Observations
IBAVARIA50
Munich, PlieningDE 85652

MunichPlieningDE 85652

Lat: 48.19916153, Lon: 11.79794312

Elevation: 504

Station Type: Davis Vantage Pro2

http://wetterstation-pliening.info

High Low Average
Temperature 66.7°F19.3°C 52.4°F11.3°C 58.4°F14.7°C
Dew Point 51.4°F10.8°C 42.1°F5.6°C 47.7°F8.7°C
Winds 12.0 mph 19.3 kmh Calm Calm 3.0 mph SW4.8 kmh SW
Wind Gusts 15.0 mph24.1 kmh -- 6.0 mph9.7 kmh
Humidity 89% 43% 70%
Pressure 30.23 in1023.7 mb 30.09 in1019.0 mb -
Precipitation 0.02 in0.5 mm - -
Hour Temp Dew Point Humidity Winds Wind Gusts Pressure Precip Precip Rate Daily Precip Total
12:00 AM 54.5°F12.5°C 51.0°F10.6°C 88% 3.0 mph WSW4.8 kmh WSW 7.0 mph11.3 kmh 30.09 in1019.0 mb 0.00 in0.0 mm 0.00 in0.0 mm 0.00 in0.0 mm
12:05 AM 54.6°F12.6°C 51.4°F10.8°C 89% 3.0 mph SW4.8 kmh SW 5.0 mph8.0 kmh 30.09 in1019.0 mb 0.00 in0.0 mm 0.00 in0.0 mm 0.00 in0.0 mm
12:10 AM 54.6°F12.6°C 51.4°F10.8°C 89% 2.0 mph WSW3.2 kmh WSW 7.0 mph11.3 kmh 30.09 in1019.0 mb 0.01 in0.3 mm 0.12 in3.0 mm 0.01 in0.3 mm
12:15 AM 54.6°F12.6°C 51.4°F10.8°C 89% 6.0 mph SW9.7 kmh SW 6.0 mph9.7 kmh 30.10 in1019.3 mb 0.01 in0.3 mm 0.00 in0.0 mm 0.01 in0.3 mm
12:20 AM 54.5°F12.5°C 51.3°F10.7°C 89% 7.0 mph WSW11.3 kmh WSW 11.0 mph17.7 kmh 30.10 in1019.3 mb 0.02 in0.5 mm 0.12 in3.0 mm 0.02 in0.5 mm
12:25 AM 54.3°F12.4°C 50.8°F10.4°C 88% 5.0 mph W8.0 kmh W 10.0 mph16.1 kmh 30.10 in1019.3 mb 0.02 in0.5 mm 0.00 in0.0 mm 0.02 in0.5 mm
12:30 AM 54.2°F12.3°C 51.0°F10.6°C 89% 3.0 mph WSW4.8 kmh WSW 7.0 mph11.3 kmh 30.10 in1019.3 mb 0.02 in0.5 mm 0.00 in0.0 mm 0.02 in0.5 mm
12:35 AM 54.2°F12.3°C 51.0°F10.6°C 89% 3.0 mph SW4.8 kmh SW 8.0 mph12.9 kmh 30.11 in1019.6 mb 0.02 in0.5 mm 0.00 in0.0 mm 0.02 in0.5 mm
12:40 AM 54.2°F12.3°C 51.0°F10.6°C 89% 3.0 mph SW4.8 kmh SW 9.0 mph14.5 kmh 30.10 in1019.3 mb 0.02 in0.5 mm 0.00 in0.0 mm 0.02 in0.5 mm
12:45 AM 54.1°F12.3°C 50.9°F10.5°C 89% 5.0 mph WSW8.0 kmh WSW 11.0 mph17.7 kmh 30.10 in1019.3 mb 0.02 in0.5 mm 0.00 in0.0 mm 0.02 in0.5 mm
12:50 AM 54.1°F12.3°C 50.9°F10.5°C 89% 6.0 mph WSW9.7 kmh WSW 9.0 mph14.5 kmh 30.10 in1019.3 mb 0.02 in0.5 mm 0.00 in0.0 mm 0.02 in0.5 mm
12:55 AM 54.1°F12.3°C 50.6°F10.3°C 88% 4.0 mph W6.4 kmh W 11.0 mph17.7 kmh 30.10 in1019.3 mb 0.02 in0.5 mm 0.00 in0.0 mm 0.02 in0.5 mm
01:00 AM 54.2°F12.3°C 50.7°F10.4°C 88% 4.0 mph W6.4 kmh W 5.0 mph8.0 kmh 30.09 in1019.0 mb 0.02 in0.5 mm 0.00 in0.0 mm 0.02 in0.5 mm
01:05 AM 54.2°F12.3°C 50.7°F10.4°C 88% 3.0 mph WSW4.8 kmh WSW 6.0 mph9.7 kmh 30.10 in1019.3 mb 0.02 in0.5 mm 0.00 in0.0 mm 0.02 in0.5 mm
01:10 AM 54.3°F12.4°C 50.8°F10.4°C 88% 4.0 mph SW6.4 kmh SW 7.0 mph11.3 kmh 30.10 in1019.3 mb 0.01 in0.3 mm 0.00 in0.0 mm 0.02 in0.5 mm
01:15 AM 54.2°F12.3°C 50.7°F10.4°C 88% 3.0 mph WSW4.8 kmh WSW 6.0 mph9.7 kmh 30.11 in1019.6 mb 0.01 in0.3 mm 0.00 in0.0 mm 0.02 in0.5 mm
01:20 AM 54.2°F12.3°C 50.4°F10.2°C 87% 4.0 mph SW6.4 kmh SW 6.0 mph9.7 kmh 30.11 in1019.6 mb 0.00 in0.0 mm 0.00 in0.0 mm 0.02 in0.5 mm
01:25 AM 54.1°F12.3°C 50.3°F10.2°C 87% 5.0 mph SW8.0 kmh SW 7.0 mph11.3 kmh 30.11 in1019.6 mb 0.00 in0.0 mm 0.00 in0.0 mm 0.02 in0.5 mm
01:30 AM 54.0°F12.2°C 50.2°F10.1°C 87% 3.0 mph WSW4.8 kmh WSW 7.0 mph11.3 kmh 30.11 in1019.6 mb 0.00 in0.0 mm 0.00 in0.0 mm 0.02 in0.5 mm
01:35 AM 54.0°F12.2°C 49.9°F9.9°C 86% 7.0 mph SW11.3 kmh SW 8.0 mph12.9 kmh 30.11 in1019.6 mb 0.00 in0.0 mm 0.00 in0.0 mm 0.02 in0.5 mm
01:40 AM 53.9°F12.2°C 49.8°F9.9°C 86% 6.0 mph WSW9.7 kmh WSW 8.0 mph12.9 kmh 30.11 in1019.6 mb 0.00 in0.0 mm 0.00 in0.0 mm 0.02 in0.5 mm
01:45 AM 54.0°F12.2°C 49.9°F9.9°C 86% 3.0 mph W4.8 kmh W 8.0 mph12.9 kmh 30.11 in1019.6 mb 0.00 in0.0 mm 0.00 in0.0 mm 0.02 in0.5 mm
01:50 AM 54.0°F12.2°C 49.5°F9.7°C 85% 4.0 mph SSW6.4 kmh SSW 9.0 mph14.5 kmh 30.11 in1019.6 mb 0.00 in0.0 mm 0.00 in0.0 mm 0.02 in0.5 mm
01:55 AM 54.1°F12.3°C 49.6°F9.8°C 85% 4.0 mph SW6.4 kmh SW 11.0 mph17.7 kmh 30.11 in1019.6 mb 0.00 in0.0 mm 0.00 in0.0 mm 0.02 in0.5 mm
02:00 AM 54.1°F12.3°C 49.6°F9.8°C 85% 7.0 mph SW11.3 kmh SW 10.0 mph16.1 kmh 30.11 in1019.6 mb 0.00 in0.0 mm 0.00 in0.0 mm 0.02 in0.5 mm
02:05 AM 54.1°F12.3°C 49.6°F9.8°C 85% 6.0 mph SW9.7 kmh SW 9.0 mph14.5 kmh 30.12 in1020.0 mb 0.00 in0.0 mm 0.00 in0.0 mm 0.02 in0.5 mm
02:10 AM 54.2°F12.3°C 49.7°F9.8°C 85% 4.0 mph SW6.4 kmh SW 6.0 mph9.7 kmh 30.12 in1020.0 mb 0.00 in0.0 mm 0.00 in0.0 mm 0.02 in0.5 mm
02:15 AM 54.2°F12.3°C 49.7°F9.8°C 85% 3.0 mph SW4.8 kmh SW 6.0 mph9.7 kmh 30.12 in1020.0 mb 0.00 in0.0 mm 0.00 in0.0 mm 0.02 in0.5 mm
02:20 AM 54.2°F12.3°C 50.1°F10.1°C 86% 2.0 mph SW3.2 kmh SW 6.0 mph9.7 kmh 30.12 in1020.0 mb 0.00 in0.0 mm 0.00 in0.0 mm 0.02 in0.5 mm
02:25 AM 54.3°F12.4°C 50.2°F10.1°C 86% 3.0 mph SW4.8 kmh SW 5.0 mph8.0 kmh 30.12 in1020.0 mb 0.00 in0.0 mm 0.00 in0.0 mm 0.02 in0.5 mm
02:30 AM 54.3°F12.4°C 50.5°F10.3°C 87% 4.0 mph SSW6.4 kmh SSW 5.0 mph8.0 kmh 30.12 in1020.0 mb 0.00 in0.0 mm 0.00 in0.0 mm 0.02 in0.5 mm
02:35 AM 54.3°F12.4°C 50.5°F10.3°C 87% 4.0 mph SW6.4 kmh SW 6.0 mph9.7 kmh 30.13 in1020.3 mb 0.00 in0.0 mm 0.00 in0.0 mm 0.02 in0.5 mm
02:40 AM 54.3°F12.4°C 50.5°F10.3°C 87% 3.0 mph SW4.8 kmh SW 6.0 mph9.7 kmh 30.13 in1020.3 mb 0.00 in0.0 mm 0.00 in0.0 mm 0.02 in0.5 mm
02:45 AM 54.3°F12.4°C 50.5°F10.3°C 87% 3.0 mph S4.8 kmh S 6.0 mph9.7 kmh 30.13 in1020.3 mb 0.00 in0.0 mm 0.00 in0.0 mm 0.02 in0.5 mm
02:50 AM 54.2°F12.3°C 50.4°F10.2°C 87% 4.0 mph SSW6.4 kmh SSW 6.0 mph9.7 kmh 30.13 in1020.3 mb 0.00 in0.0 mm 0.00 in0.0 mm 0.02 in0.5 mm
02:55 AM 54.3°F12.4°C 50.5°F10.3°C 87% 6.0 mph SW9.7 kmh SW 7.0 mph11.3 kmh 30.13 in1020.3 mb 0.00 in0.0 mm 0.00 in0.0 mm 0.02 in0.5 mm
03:00 AM 54.3°F12.4°C 50.2°F10.1°C 86% 3.0 mph WSW4.8 kmh WSW 6.0 mph9.7 kmh 30.14 in1020.7 mb 0.00 in0.0 mm 0.00 in0.0 mm 0.02 in0.5 mm
03:05 AM 54.3°F12.4°C 50.2°F10.1°C 86% 2.0 mph WSW3.2 kmh WSW 6.0 mph9.7 kmh 30.14 in1020.7 mb 0.00 in0.0 mm 0.00 in0.0 mm 0.02 in0.5 mm
03:10 AM 54.3°F12.4°C 50.2°F10.1°C 86% 2.0 mph WSW3.2 kmh WSW 4.0 mph6.4 kmh 30.14 in1020.7 mb 0.00 in0.0 mm 0.00 in0.0 mm 0.02 in0.5 mm
03:15 AM 54.3°F12.4°C 50.2°F10.1°C 86% 3.0 mph SW4.8 kmh SW 4.0 mph6.4 kmh 30.14 in1020.7 mb 0.00 in0.0 mm 0.00 in0.0 mm 0.02 in0.5 mm
03:20 AM 54.4°F12.4°C 49.9°F9.9°C 85% 3.0 mph WSW4.8 kmh WSW 5.0 mph8.0 kmh 30.14 in1020.7 mb 0.00 in0.0 mm 0.00 in0.0 mm 0.02 in0.5 mm
03:25 AM 54.4°F12.4°C 49.3°F9.6°C 83% 4.0 mph WSW6.4 kmh WSW 6.0 mph9.7 kmh 30.14 in1020.7 mb 0.00 in0.0 mm 0.00 in0.0 mm 0.02 in0.5 mm
03:30 AM 54.4°F12.4°C 49.0°F9.4°C 82% 5.0 mph WSW8.0 kmh WSW 9.0 mph14.5 kmh 30.14 in1020.7 mb 0.00 in0.0 mm 0.00 in0.0 mm 0.02 in0.5 mm
03:35 AM 54.4°F12.4°C 48.6°F9.2°C 81% 5.0 mph WSW8.0 kmh WSW 8.0 mph12.9 kmh 30.15 in1021.0 mb 0.00 in0.0 mm 0.00 in0.0 mm 0.02 in0.5 mm
03:40 AM 54.4°F12.4°C 48.6°F9.2°C 81% 2.0 mph WSW3.2 kmh WSW 9.0 mph14.5 kmh 30.14 in1020.7 mb 0.00 in0.0 mm 0.00 in0.0 mm 0.02 in0.5 mm
03:45 AM 54.4°F12.4°C 48.6°F9.2°C 81% 3.0 mph WSW4.8 kmh WSW 10.0 mph16.1 kmh 30.15 in1021.0 mb 0.00 in0.0 mm 0.00 in0.0 mm 0.02 in0.5 mm
03:50 AM 54.3°F12.4°C 48.5°F9.2°C 81% 3.0 mph WSW4.8 kmh WSW 6.0 mph9.7 kmh 30.15 in1021.0 mb 0.00 in0.0 mm 0.00 in0.0 mm 0.02 in0.5 mm
03:55 AM 54.3°F12.4°C 48.5°F9.2°C 81% 5.0 mph W8.0 kmh W 7.0 mph11.3 kmh 30.15 in1021.0 mb 0.00 in0.0 mm 0.00 in0.0 mm 0.02 in0.5 mm
04:00 AM 54.3°F12.4°C 48.5°F9.2°C 81% 4.0 mph WSW6.4 kmh WSW 6.0 mph9.7 kmh 30.15 in1021.0 mb 0.00 in0.0 mm 0.00 in0.0 mm 0.02 in0.5 mm
04:05 AM 54.2°F12.3°C 48.8°F9.3°C 82% 4.0 mph WSW6.4 kmh WSW 6.0 mph9.7 kmh 30.16 in1021.3 mb 0.00 in0.0 mm 0.00 in0.0 mm 0.02 in0.5 mm
04:10 AM 54.1°F12.3°C 48.3°F9.1°C 81% 4.0 mph WSW6.4 kmh WSW 7.0 mph11.3 kmh 30.16 in1021.3 mb 0.00 in0.0 mm 0.00 in0.0 mm 0.02 in0.5 mm
04:15 AM 54.0°F12.2°C 48.6°F9.2°C 82% 3.0 mph SW4.8 kmh SW 7.0 mph11.3 kmh 30.15 in1021.0 mb 0.00 in0.0 mm 0.00 in0.0 mm 0.02 in0.5 mm
04:20 AM 53.9°F12.2°C 48.5°F9.2°C 82% 1.0 mph SW1.6 kmh SW 6.0 mph9.7 kmh 30.15 in1021.0 mb 0.00 in0.0 mm 0.00 in0.0 mm 0.02 in0.5 mm
04:25 AM 53.8°F12.1°C 48.4°F9.1°C 82% 3.0 mph WSW4.8 kmh WSW 5.0 mph8.0 kmh 30.15 in1021.0 mb 0.00 in0.0 mm 0.00 in0.0 mm 0.02 in0.5 mm
04:30 AM 53.8°F12.1°C 48.4°F9.1°C 82% 2.0 mph WSW3.2 kmh WSW 5.0 mph8.0 kmh 30.15 in1021.0 mb 0.00 in0.0 mm 0.00 in0.0 mm 0.02 in0.5 mm
04:35 AM 53.7°F12.1°C 48.3°F9.1°C 82% 3.0 mph WSW4.8 kmh WSW 4.0 mph6.4 kmh 30.15 in1021.0 mb 0.00 in0.0 mm 0.00 in0.0 mm 0.02 in0.5 mm
04:40 AM 53.6°F12.0°C 48.5°F9.2°C 83% 4.0 mph WSW6.4 kmh WSW 5.0 mph8.0 kmh 30.16 in1021.3 mb 0.00 in0.0 mm 0.00 in0.0 mm 0.02 in0.5 mm
04:45 AM 53.5°F11.9°C 48.4°F9.1°C 83% 2.0 mph SW3.2 kmh SW 6.0 mph9.7 kmh 30.16 in1021.3 mb 0.00 in0.0 mm 0.00 in0.0 mm 0.02 in0.5 mm
04:50 AM 53.4°F11.9°C 48.3°F9.1°C 83% 3.0 mph WSW4.8 kmh WSW 5.0 mph8.0 kmh 30.16 in1021.3 mb 0.00 in0.0 mm 0.00 in0.0 mm 0.02 in0.5 mm
04:55 AM 53.3°F11.8°C 48.2°F9.0°C 83% 2.0 mph WSW3.2 kmh WSW 4.0 mph6.4 kmh 30.16 in1021.3 mb 0.00 in0.0 mm 0.00 in0.0 mm 0.02 in0.5 mm
05:00 AM 53.2°F11.8°C 48.1°F8.9°C 83% 2.0 mph WSW3.2 kmh WSW 5.0 mph8.0 kmh 30.17 in1021.7 mb 0.00 in0.0 mm 0.00 in0.0 mm 0.02 in0.5 mm
05:05 AM 53.1°F11.7°C 48.0°F8.9°C 83% 3.0 mph SW4.8 kmh SW 5.0 mph8.0 kmh 30.17 in1021.7 mb 0.00 in0.0 mm 0.00 in0.0 mm 0.02 in0.5 mm
05:10 AM 53.1°F11.7°C 48.0°F8.9°C 83% 3.0 mph SW4.8 kmh SW 5.0 mph8.0 kmh 30.16 in1021.3 mb 0.00 in0.0 mm 0.00 in0.0 mm 0.02 in0.5 mm
05:15 AM 53.0°F11.7°C 47.9°F8.8°C 83% 3.0 mph SW4.8 kmh SW 6.0 mph9.7 kmh 30.16 in1021.3 mb 0.00 in0.0 mm 0.00 in0.0 mm 0.02 in0.5 mm
05:20 AM 53.0°F11.7°C 47.9°F8.8°C 83% 4.0 mph SW6.4 kmh SW 6.0 mph9.7 kmh 30.15 in1021.0 mb 0.00 in0.0 mm 0.00 in0.0 mm 0.02 in0.5 mm
05:25 AM 53.0°F11.7°C 47.9°F8.8°C 83% 4.0 mph SW6.4 kmh SW 6.0 mph9.7 kmh 30.16 in1021.3 mb 0.00 in0.0 mm 0.00 in0.0 mm 0.02 in0.5 mm
05:30 AM 53.0°F11.7°C 48.2°F9.0°C 84% 3.0 mph S4.8 kmh S 6.0 mph9.7 kmh 30.16 in1021.3 mb 0.00 in0.0 mm 0.00 in0.0 mm 0.02 in0.5 mm
05:35 AM 53.0°F11.7°C 48.6°F9.2°C 85% 3.0 mph SSW4.8 kmh SSW 5.0 mph8.0 kmh 30.16 in1021.3 mb 0.00 in0.0 mm 0.00 in0.0 mm 0.02 in0.5 mm
05:40 AM 52.9°F11.6°C 48.8°F9.3°C 86% 1.0 mph SSW1.6 kmh SSW 6.0 mph9.7 kmh 30.17 in1021.7 mb 0.00 in0.0 mm 0.00 in0.0 mm 0.02 in0.5 mm
05:45 AM 52.8°F11.6°C 49.0°F9.4°C 87% 4.0 mph SSW6.4 kmh SSW 5.0 mph8.0 kmh 30.17 in1021.7 mb 0.00 in0.0 mm 0.00 in0.0 mm 0.02 in0.5 mm
05:50 AM 52.8°F11.6°C 49.0°F9.4°C 87% 3.0 mph SSW4.8 kmh SSW 5.0 mph8.0 kmh 30.17 in1021.7 mb 0.00 in0.0 mm 0.00 in0.0 mm 0.02 in0.5 mm
05:55 AM 52.6°F11.4°C 48.8°F9.3°C 87% 2.0 mph SSW3.2 kmh SSW 4.0 mph6.4 kmh 30.17 in1021.7 mb 0.00 in0.0 mm 0.00 in0.0 mm 0.02 in0.5 mm
06:00 AM 52.6°F11.4°C 48.8°F9.3°C 87% 3.0 mph SSW4.8 kmh SSW 4.0 mph6.4 kmh 30.17 in1021.7 mb 0.00 in0.0 mm 0.00 in0.0 mm 0.02 in0.5 mm
06:05 AM 52.5°F11.4°C 48.7°F9.3°C 87% 4.0 mph SSW6.4 kmh SSW 4.0 mph6.4 kmh 30.17 in1021.7 mb 0.00 in0.0 mm 0.00 in0.0 mm 0.02 in0.5 mm
06:10 AM 52.4°F11.3°C 48.6°F9.2°C 87% 3.0 mph SSW4.8 kmh SSW 5.0 mph8.0 kmh 30.18 in1022.0 mb 0.00 in0.0 mm 0.00 in0.0 mm 0.02 in0.5 mm
06:15 AM 52.4°F11.3°C 48.6°F9.2°C 87% 1.0 mph SSW1.6 kmh SSW 4.0 mph6.4 kmh 30.18 in1022.0 mb 0.00 in0.0 mm 0.00 in0.0 mm 0.02 in0.5 mm
06:20 AM 52.4°F11.3°C 48.6°F9.2°C 87% 3.0 mph SW4.8 kmh SW 5.0 mph8.0 kmh 30.18 in1022.0 mb 0.00 in0.0 mm 0.00 in0.0 mm 0.02 in0.5 mm
06:25 AM 52.4°F11.3°C 48.6°F9.2°C 87% 3.0 mph SSW4.8 kmh SSW 5.0 mph8.0 kmh 30.18 in1022.0 mb 0.00 in0.0 mm 0.00 in0.0 mm 0.02 in0.5 mm
06:30 AM 52.4°F11.3°C 48.6°F9.2°C 87% 4.0 mph SW6.4 kmh SW 5.0 mph8.0 kmh 30.18 in1022.0 mb 0.00 in0.0 mm 0.00 in0.0 mm 0.02 in0.5 mm
06:35 AM 52.6°F11.4°C 48.8°F9.3°C 87% 3.0 mph SSW4.8 kmh SSW 5.0 mph8.0 kmh 30.18 in1022.0 mb 0.00 in0.0 mm 0.00 in0.0 mm 0.02 in0.5 mm
06:40 AM 52.7°F11.5°C 48.9°F9.4°C 87% 1.0 mph SW1.6 kmh SW 6.0 mph9.7 kmh 30.17 in1021.7 mb 0.00 in0.0 mm 0.00 in0.0 mm 0.02 in0.5 mm
06:45 AM 52.8°F11.6°C 48.7°F9.3°C 86% 3.0 mph SW4.8 kmh SW 5.0 mph8.0 kmh 30.17 in1021.7 mb 0.00 in0.0 mm 0.00 in0.0 mm 0.02 in0.5 mm
06:50 AM 52.8°F11.6°C 48.7°F9.3°C 86% 3.0 mph SSW4.8 kmh SSW 6.0 mph9.7 kmh 30.17 in1021.7 mb 0.00 in0.0 mm 0.00 in0.0 mm 0.02 in0.5 mm
06:55 AM 52.9°F11.6°C 48.8°F9.3°C 86% 2.0 mph S3.2 kmh S 5.0 mph8.0 kmh 30.18 in1022.0 mb 0.00 in0.0 mm 0.00 in0.0 mm 0.02 in0.5 mm
07:00 AM 53.0°F11.7°C 48.9°F9.4°C 86% 2.0 mph SSW3.2 kmh SSW 5.0 mph8.0 kmh 30.17 in1021.7 mb 0.00 in0.0 mm 0.00 in0.0 mm 0.02 in0.5 mm
07:05 AM 53.0°F11.7°C 48.9°F9.4°C 86% 1.0 mph SSW1.6 kmh SSW 4.0 mph6.4 kmh 30.18 in1022.0 mb 0.00 in0.0 mm 0.00 in0.0 mm 0.02 in0.5 mm
07:10 AM 53.1°F11.7°C 49.0°F9.4°C 86% 2.0 mph SW3.2 kmh SW 6.0 mph9.7 kmh 30.19 in1022.4 mb 0.00 in0.0 mm 0.00 in0.0 mm 0.02 in0.5 mm
07:15 AM 53.3°F11.8°C 49.2°F9.6°C 86% 4.0 mph SSW6.4 kmh SSW 6.0 mph9.7 kmh 30.18 in1022.0 mb 0.00 in0.0 mm 0.00 in0.0 mm 0.02 in0.5 mm
07:20 AM 53.4°F11.9°C 49.0°F9.4°C 85% 4.0 mph SW6.4 kmh SW 6.0 mph9.7 kmh 30.18 in1022.0 mb 0.00 in0.0 mm 0.00 in0.0 mm 0.02 in0.5 mm
07:25 AM 53.6°F12.0°C 49.1°F9.5°C 85% 1.0 mph S1.6 kmh S 5.0 mph8.0 kmh 30.18 in1022.0 mb 0.00 in0.0 mm 0.00 in0.0 mm 0.02 in0.5 mm
07:30 AM 53.8°F12.1°C 49.7°F9.8°C 86% 1.0 mph S1.6 kmh S 4.0 mph6.4 kmh 30.18 in1022.0 mb 0.00 in0.0 mm 0.00 in0.0 mm 0.02 in0.5 mm
07:35 AM 53.9°F12.2°C 50.1°F10.1°C 87% 3.0 mph SSW4.8 kmh SSW 4.0 mph6.4 kmh 30.19 in1022.4 mb 0.00 in0.0 mm 0.00 in0.0 mm 0.02 in0.5 mm
07:40 AM 54.0°F12.2°C 50.2°F10.1°C 87% 2.0 mph SSW3.2 kmh SSW 5.0 mph8.0 kmh 30.19 in1022.4 mb 0.00 in0.0 mm 0.00 in0.0 mm 0.02 in0.5 mm
07:45 AM 54.1°F12.3°C 50.3°F10.2°C 87% 3.0 mph SSW4.8 kmh SSW 6.0 mph9.7 kmh 30.19 in1022.4 mb 0.00 in0.0 mm 0.00 in0.0 mm 0.02 in0.5 mm
07:50 AM 54.2°F12.3°C 50.4°F10.2°C 87% Calm Calm 6.0 mph9.7 kmh 30.18 in1022.0 mb 0.00 in0.0 mm 0.00 in0.0 mm 0.02 in0.5 mm
07:55 AM 54.3°F12.4°C 50.5°F10.3°C 87% 1.0 mph SSW1.6 kmh SSW 5.0 mph8.0 kmh 30.19 in1022.4 mb 0.00 in0.0 mm 0.00 in0.0 mm 0.02 in0.5 mm
08:00 AM 54.4°F12.4°C 50.2°F10.1°C 86% 4.0 mph SW6.4 kmh SW 6.0 mph9.7 kmh 30.19 in1022.4 mb 0.00 in0.0 mm 0.00 in0.0 mm 0.02 in0.5 mm
08:05 AM 54.5°F12.5°C 50.3°F10.2°C 86% 5.0 mph SW8.0 kmh SW 7.0 mph11.3 kmh 30.21 in1023.0 mb 0.00 in0.0 mm 0.00 in0.0 mm 0.02 in0.5 mm
08:10 AM 54.6°F12.6°C 50.1°F10.1°C 85% 8.0 mph SW12.9 kmh SW 8.0 mph12.9 kmh 30.21 in1023.0 mb 0.00 in0.0 mm 0.00 in0.0 mm 0.02 in0.5 mm
08:15 AM 55.0°F12.8°C 50.2°F10.1°C 84% 4.0 mph WNW6.4 kmh WNW 9.0 mph14.5 kmh 30.21 in1023.0 mb 0.00 in0.0 mm 0.00 in0.0 mm 0.02 in0.5 mm
08:20 AM 55.2°F12.9°C 49.8°F9.9°C 82% 5.0 mph W8.0 kmh W 11.0 mph17.7 kmh 30.21 in1023.0 mb 0.00 in0.0 mm 0.00 in0.0 mm 0.02 in0.5 mm
08:25 AM 55.3°F12.9°C 49.8°F9.9°C 82% 6.0 mph SW9.7 kmh SW 9.0 mph14.5 kmh 30.21 in1023.0 mb 0.00 in0.0 mm 0.00 in0.0 mm 0.02 in0.5 mm
08:30 AM 55.3°F12.9°C 49.8°F9.9°C 82% 6.0 mph SSW9.7 kmh SSW 7.0 mph11.3 kmh 30.21 in1023.0 mb 0.00 in0.0 mm 0.00 in0.0 mm 0.02 in0.5 mm
08:35 AM 55.5°F13.1°C 49.7°F9.8°C 81% 5.0 mph WSW8.0 kmh WSW 9.0 mph14.5 kmh 30.21 in1023.0 mb 0.00 in0.0 mm 0.00 in0.0 mm 0.02 in0.5 mm
08:40 AM 55.7°F13.2°C 49.9°F9.9°C 81% 7.0 mph SW11.3 kmh SW 12.0 mph19.3 kmh 30.21 in1023.0 mb 0.00 in0.0 mm 0.00 in0.0 mm 0.02 in0.5 mm
08:45 AM 56.0°F13.3°C 49.5°F9.7°C 79% 5.0 mph SW8.0 kmh SW 9.0 mph14.5 kmh 30.21 in1023.0 mb 0.00 in0.0 mm 0.00 in0.0 mm 0.02 in0.5 mm
08:50 AM 56.4°F13.6°C 48.9°F9.4°C 76% 5.0 mph SW8.0 kmh SW 12.0 mph19.3 kmh 30.21 in1023.0 mb 0.00 in0.0 mm 0.00 in0.0 mm 0.02 in0.5 mm
08:55 AM 56.5°F13.6°C 47.9°F8.8°C 73% 5.0 mph W8.0 kmh W 10.0 mph16.1 kmh 30.21 in1023.0 mb 0.00 in0.0 mm 0.00 in0.0 mm 0.02 in0.5 mm
09:00 AM 56.6°F13.7°C 47.3°F8.5°C 71% 7.0 mph WSW11.3 kmh WSW 12.0 mph19.3 kmh 30.22 in1023.4 mb 0.00 in0.0 mm 0.00 in0.0 mm 0.02 in0.5 mm
09:05 AM 56.8°F13.8°C 47.4°F8.6°C 71% 6.0 mph W9.7 kmh W 7.0 mph11.3 kmh 30.22 in1023.4 mb 0.00 in0.0 mm 0.00 in0.0 mm 0.02 in0.5 mm
09:10 AM 56.9°F13.8°C 47.5°F8.6°C 71% 5.0 mph WSW8.0 kmh WSW 11.0 mph17.7 kmh 30.22 in1023.4 mb 0.00 in0.0 mm 0.00 in0.0 mm 0.02 in0.5 mm
09:15 AM 57.1°F13.9°C 47.7°F8.7°C 71% 5.0 mph WSW8.0 kmh WSW 11.0 mph17.7 kmh 30.23 in1023.7 mb 0.00 in0.0 mm 0.00 in0.0 mm 0.02 in0.5 mm
09:20 AM 57.5°F14.2°C 47.4°F8.6°C 69% 7.0 mph WSW11.3 kmh WSW 7.0 mph11.3 kmh 30.22 in1023.4 mb 0.00 in0.0 mm 0.00 in0.0 mm 0.02 in0.5 mm
09:25 AM 57.9°F14.4°C 47.4°F8.6°C 68% 10.0 mph WSW16.1 kmh WSW 11.0 mph17.7 kmh 30.22 in1023.4 mb 0.00 in0.0 mm 0.00 in0.0 mm 0.02 in0.5 mm
09:30 AM 58.0°F14.4°C 45.8°F7.7°C 64% 9.0 mph WSW14.5 kmh WSW 10.0 mph16.1 kmh 30.23 in1023.7 mb 0.00 in0.0 mm 0.00 in0.0 mm 0.02 in0.5 mm
09:35 AM 58.2°F14.6°C 46.4°F8.0°C 65% 11.0 mph WSW17.7 kmh WSW 11.0 mph17.7 kmh 30.22 in1023.4 mb 0.00 in0.0 mm 0.00 in0.0 mm 0.02 in0.5 mm
09:40 AM 58.3°F14.6°C 46.5°F8.1°C 65% 3.0 mph W4.8 kmh W 11.0 mph17.7 kmh 30.23 in1023.7 mb 0.00 in0.0 mm 0.00 in0.0 mm 0.02 in0.5 mm
09:45 AM 58.3°F14.6°C 46.1°F7.8°C 64% 2.0 mph WSW3.2 kmh WSW 10.0 mph16.1 kmh 30.23 in1023.7 mb 0.00 in0.0 mm 0.00 in0.0 mm 0.02 in0.5 mm
09:50 AM 58.5°F14.7°C 45.5°F7.5°C 62% 11.0 mph WNW17.7 kmh WNW 11.0 mph17.7 kmh 30.23 in1023.7 mb 0.00 in0.0 mm 0.00 in0.0 mm 0.02 in0.5 mm
09:55 AM 58.6°F14.8°C 46.0°F7.8°C 63% 9.0 mph WSW14.5 kmh WSW 10.0 mph16.1 kmh 30.22 in1023.4 mb 0.00 in0.0 mm 0.00 in0.0 mm 0.02 in0.5 mm
10:00 AM 58.6°F14.8°C 46.0°F7.8°C 63% 5.0 mph W8.0 kmh W 11.0 mph17.7 kmh 30.22 in1023.4 mb 0.00 in0.0 mm 0.00 in0.0 mm 0.02 in0.5 mm
10:05 AM 58.5°F14.7°C 45.0°F7.2°C 61% 9.0 mph SW14.5 kmh SW 12.0 mph19.3 kmh 30.22 in1023.4 mb 0.00 in0.0 mm 0.00 in0.0 mm 0.02 in0.5 mm
10:10 AM 58.7°F14.8°C 46.1°F7.8°C 63% 9.0 mph W14.5 kmh W 9.0 mph14.5 kmh 30.22 in1023.4 mb 0.00 in0.0 mm 0.00 in0.0 mm 0.02 in0.5 mm
10:15 AM 58.8°F14.9°C 45.8°F7.7°C 62% 5.0 mph WSW8.0 kmh WSW 10.0 mph16.1 kmh 30.22 in1023.4 mb 0.00 in0.0 mm 0.00 in0.0 mm 0.02 in0.5 mm
10:20 AM 59.0°F15.0°C 45.1°F7.3°C 60% 4.0 mph WSW6.4 kmh WSW 9.0 mph14.5 kmh 30.22 in1023.4 mb 0.00 in0.0 mm 0.00 in0.0 mm 0.02 in0.5 mm
10:25 AM 59.1°F15.1°C 45.6°F7.6°C 61% 9.0 mph WSW14.5 kmh WSW 11.0 mph17.7 kmh 30.21 in1023.0 mb 0.00 in0.0 mm 0.00 in0.0 mm 0.02 in0.5 mm
10:30 AM 59.2°F15.1°C 44.8°F7.1°C 59% 6.0 mph W9.7 kmh W 9.0 mph14.5 kmh 30.21 in1023.0 mb 0.00 in0.0 mm 0.00 in0.0 mm 0.02 in0.5 mm
10:35 AM 59.3°F15.2°C 44.9°F7.2°C 59% 7.0 mph WSW11.3 kmh WSW 10.0 mph16.1 kmh 30.21 in1023.0 mb 0.00 in0.0 mm 0.00 in0.0 mm 0.02 in0.5 mm
10:40 AM 59.6°F15.3°C 45.2°F7.3°C 59% 6.0 mph WSW9.7 kmh WSW 9.0 mph14.5 kmh 30.21 in1023.0 mb 0.00 in0.0 mm 0.00 in0.0 mm 0.02 in0.5 mm
10:45 AM 59.8°F15.4°C 44.0°F6.7°C 56% 4.0 mph WSW6.4 kmh WSW 8.0 mph12.9 kmh 30.21 in1023.0 mb 0.00 in0.0 mm 0.00 in0.0 mm 0.02 in0.5 mm
10:50 AM 60.0°F15.6°C 45.6°F7.6°C 59% 5.0 mph W8.0 kmh W 6.0 mph9.7 kmh 30.21 in1023.0 mb 0.00 in0.0 mm 0.00 in0.0 mm 0.02 in0.5 mm
10:55 AM 60.2°F15.7°C 45.3°F7.4°C 58% 2.0 mph WSW3.2 kmh WSW 10.0 mph16.1 kmh 30.21 in1023.0 mb 0.00 in0.0 mm 0.00 in0.0 mm 0.02 in0.5 mm
11:00 AM 60.3°F15.7°C 45.4°F7.4°C 58% 4.0 mph WSW6.4 kmh WSW 12.0 mph19.3 kmh 30.21 in1023.0 mb 0.00 in0.0 mm 0.00 in0.0 mm 0.02 in0.5 mm
11:05 AM 60.4°F15.8°C 45.5°F7.5°C 58% 7.0 mph WNW11.3 kmh WNW 7.0 mph11.3 kmh 30.21 in1023.0 mb 0.00 in0.0 mm 0.00 in0.0 mm 0.02 in0.5 mm
11:10 AM 60.5°F15.8°C 44.7°F7.1°C 56% 2.0 mph WNW3.2 kmh WNW 8.0 mph12.9 kmh 30.21 in1023.0 mb 0.00 in0.0 mm 0.00 in0.0 mm 0.02 in0.5 mm
11:15 AM 60.6°F15.9°C 44.3°F6.8°C 55% 3.0 mph WSW4.8 kmh WSW 8.0 mph12.9 kmh 30.20 in1022.7 mb 0.00 in0.0 mm 0.00 in0.0 mm 0.02 in0.5 mm
11:20 AM 60.5°F15.8°C 44.7°F7.1°C 56% 2.0 mph W3.2 kmh W 6.0 mph9.7 kmh 30.20 in1022.7 mb 0.00 in0.0 mm 0.00 in0.0 mm 0.02 in0.5 mm
11:25 AM 60.4°F15.8°C 45.0°F7.2°C 57% 3.0 mph W4.8 kmh W 8.0 mph12.9 kmh 30.21 in1023.0 mb 0.00 in0.0 mm 0.00 in0.0 mm 0.02 in0.5 mm
11:30 AM 60.5°F15.8°C 44.2°F6.8°C 55% 8.0 mph W12.9 kmh W 10.0 mph16.1 kmh 30.20 in1022.7 mb 0.00 in0.0 mm 0.00 in0.0 mm 0.02 in0.5 mm
11:35 AM 60.7°F15.9°C 43.9°F6.6°C 54% 5.0 mph WSW8.0 kmh WSW 12.0 mph19.3 kmh 30.20 in1022.7 mb 0.00 in0.0 mm 0.00 in0.0 mm 0.02 in0.5 mm
11:40 AM 60.7°F15.9°C 44.4°F6.9°C 55% 6.0 mph W9.7 kmh W 12.0 mph19.3 kmh 30.20 in1022.7 mb 0.00 in0.0 mm 0.00 in0.0 mm 0.02 in0.5 mm
11:45 AM 60.7°F15.9°C 44.4°F6.9°C 55% 7.0 mph WSW11.3 kmh WSW 11.0 mph17.7 kmh 30.20 in1022.7 mb 0.00 in0.0 mm 0.00 in0.0 mm 0.02 in0.5 mm
11:50 AM 60.6°F15.9°C 43.8°F6.6°C 54% 9.0 mph W14.5 kmh W 11.0 mph17.7 kmh 30.20 in1022.7 mb 0.00 in0.0 mm 0.00 in0.0 mm 0.02 in0.5 mm
11:55 AM 60.9°F16.1°C 43.1°F6.2°C 52% 4.0 mph WSW6.4 kmh WSW 9.0 mph14.5 kmh 30.20 in1022.7 mb 0.00 in0.0 mm 0.00 in0.0 mm 0.02 in0.5 mm
12:00 PM 61.0°F16.1°C 43.7°F6.5°C 53% 4.0 mph SW6.4 kmh SW 6.0 mph9.7 kmh 30.19 in1022.4 mb 0.00 in0.0 mm 0.00 in0.0 mm 0.02 in0.5 mm
12:05 PM 61.2°F16.2°C 44.4°F6.9°C 54% 3.0 mph W4.8 kmh W 6.0 mph9.7 kmh 30.19 in1022.4 mb 0.00 in0.0 mm 0.00 in0.0 mm 0.02 in0.5 mm
12:10 PM 61.4°F16.3°C 44.1°F6.7°C 53% 2.0 mph W3.2 kmh W 6.0 mph9.7 kmh 30.19 in1022.4 mb 0.00 in0.0 mm 0.00 in0.0 mm 0.02 in0.5 mm
12:15 PM 61.4°F16.3°C 42.5°F5.8°C 50% 6.0 mph WSW9.7 kmh WSW 11.0 mph17.7 kmh 30.19 in1022.4 mb 0.00 in0.0 mm 0.00 in0.0 mm 0.02 in0.5 mm
12:20 PM 61.3°F16.3°C 42.5°F5.8°C 50% 5.0 mph WSW8.0 kmh WSW 8.0 mph12.9 kmh 30.19 in1022.4 mb 0.00 in0.0 mm 0.00 in0.0 mm 0.02 in0.5 mm
12:25 PM 61.5°F16.4°C 42.1°F5.6°C 49% 2.0 mph WSW3.2 kmh WSW 5.0 mph8.0 kmh 30.18 in1022.0 mb 0.00 in0.0 mm 0.00 in0.0 mm 0.02 in0.5 mm
12:30 PM 61.8°F16.6°C 44.9°F7.2°C 54% 4.0 mph W6.4 kmh W 7.0 mph11.3 kmh 30.18 in1022.0 mb 0.00 in0.0 mm 0.00 in0.0 mm 0.02 in0.5 mm
12:35 PM 62.1°F16.7°C 43.7°F6.5°C 51% 1.0 mph N1.6 kmh N 7.0 mph11.3 kmh 30.18 in1022.0 mb 0.00 in0.0 mm 0.00 in0.0 mm 0.02 in0.5 mm
12:40 PM 62.1°F16.7°C 43.7°F6.5°C 51% 3.0 mph W4.8 kmh W 5.0 mph8.0 kmh 30.18 in1022.0 mb 0.00 in0.0 mm 0.00 in0.0 mm 0.02 in0.5 mm
12:45 PM 62.3°F16.8°C 43.9°F6.6°C 51% 6.0 mph W9.7 kmh W 11.0 mph17.7 kmh 30.17 in1021.7 mb 0.00 in0.0 mm 0.00 in0.0 mm 0.02 in0.5 mm
12:50 PM 62.5°F16.9°C 42.5°F5.8°C 48% 2.0 mph SSE3.2 kmh SSE 7.0 mph11.3 kmh 30.17 in1021.7 mb 0.00 in0.0 mm 0.00 in0.0 mm 0.02 in0.5 mm
12:55 PM 63.1°F17.3°C 43.6°F6.4°C 49% 3.0 mph W4.8 kmh W 7.0 mph11.3 kmh 30.17 in1021.7 mb 0.00 in0.0 mm 0.00 in0.0 mm 0.02 in0.5 mm
01:00 PM 63.8°F17.7°C 44.2°F6.8°C 49% 5.0 mph W8.0 kmh W 11.0 mph17.7 kmh 30.17 in1021.7 mb 0.00 in0.0 mm 0.00 in0.0 mm 0.02 in0.5 mm
01:05 PM 64.2°F17.9°C 44.0°F6.7°C 48% 6.0 mph W9.7 kmh W 11.0 mph17.7 kmh 30.17 in1021.7 mb 0.00 in0.0 mm 0.00 in0.0 mm 0.02 in0.5 mm
01:10 PM 64.0°F17.8°C 44.4°F6.9°C 49% 5.0 mph WSW8.0 kmh WSW 11.0 mph17.7 kmh 30.17 in1021.7 mb 0.00 in0.0 mm 0.00 in0.0 mm 0.02 in0.5 mm
01:15 PM 63.8°F17.7°C 43.7°F6.5°C 48% 3.0 mph WSW4.8 kmh WSW 8.0 mph12.9 kmh 30.17 in1021.7 mb 0.00 in0.0 mm 0.00 in0.0 mm 0.02 in0.5 mm
01:20 PM 64.1°F17.8°C 44.0°F6.7°C 48% 10.0 mph SW16.1 kmh SW 11.0 mph17.7 kmh 30.17 in1021.7 mb 0.00 in0.0 mm 0.00 in0.0 mm 0.02 in0.5 mm
01:25 PM 64.2°F17.9°C 44.0°F6.7°C 48% 9.0 mph WNW14.5 kmh WNW 10.0 mph16.1 kmh 30.17 in1021.7 mb 0.00 in0.0 mm 0.00 in0.0 mm 0.02 in0.5 mm
01:30 PM 64.3°F17.9°C 43.0°F6.1°C 46% 9.0 mph SW14.5 kmh SW 10.0 mph16.1 kmh 30.16 in1021.3 mb 0.00 in0.0 mm 0.00 in0.0 mm 0.02 in0.5 mm
01:35 PM 63.9°F17.7°C 44.3°F6.8°C 49% 3.0 mph W4.8 kmh W 10.0 mph16.1 kmh 30.15 in1021.0 mb 0.00 in0.0 mm 0.00 in0.0 mm 0.02 in0.5 mm
01:40 PM 64.1°F17.8°C 43.4°F6.3°C 47% 3.0 mph SW4.8 kmh SW 9.0 mph14.5 kmh 30.15 in1021.0 mb 0.00 in0.0 mm 0.00 in0.0 mm 0.02 in0.5 mm
01:45 PM 64.4°F18.0°C 44.2°F6.8°C 48% 3.0 mph WNW4.8 kmh WNW 7.0 mph11.3 kmh 30.15 in1021.0 mb 0.00 in0.0 mm 0.00 in0.0 mm 0.02 in0.5 mm
01:50 PM 64.4°F18.0°C 44.2°F6.8°C 48% 4.0 mph W6.4 kmh W 6.0 mph9.7 kmh 30.14 in1020.7 mb 0.00 in0.0 mm 0.00 in0.0 mm 0.02 in0.5 mm
01:55 PM 64.8°F18.2°C 43.5°F6.4°C 46% 1.0 mph W1.6 kmh W 11.0 mph17.7 kmh 30.14 in1020.7 mb 0.00 in0.0 mm 0.00 in0.0 mm 0.02 in0.5 mm
02:00 PM 64.7°F18.2°C 43.4°F6.3°C 46% 3.0 mph WSW4.8 kmh WSW 12.0 mph19.3 kmh 30.14 in1020.7 mb 0.00 in0.0 mm 0.00 in0.0 mm 0.02 in0.5 mm
02:05 PM 64.6°F18.1°C 44.4°F6.9°C 48% 5.0 mph SW8.0 kmh SW 9.0 mph14.5 kmh 30.14 in1020.7 mb 0.00 in0.0 mm 0.00 in0.0 mm 0.02 in0.5 mm
02:10 PM 64.9°F18.3°C 43.0°F6.1°C 45% 1.0 mph W1.6 kmh W 6.0 mph9.7 kmh 30.14 in1020.7 mb 0.00 in0.0 mm 0.00 in0.0 mm 0.02 in0.5 mm
02:15 PM 65.3°F18.5°C 45.0°F7.2°C 48% 8.0 mph WSW12.9 kmh WSW 9.0 mph14.5 kmh 30.14 in1020.7 mb 0.00 in0.0 mm 0.00 in0.0 mm 0.02 in0.5 mm
02:20 PM 65.5°F18.6°C 44.1°F6.7°C 46% 7.0 mph WSW11.3 kmh WSW 10.0 mph16.1 kmh 30.13 in1020.3 mb 0.00 in0.0 mm 0.00 in0.0 mm 0.02 in0.5 mm
02:25 PM 65.2°F18.4°C 43.3°F6.3°C 45% 2.0 mph SW3.2 kmh SW 9.0 mph14.5 kmh 30.13 in1020.3 mb 0.00 in0.0 mm 0.00 in0.0 mm 0.02 in0.5 mm
02:30 PM 65.1°F18.4°C 43.8°F6.6°C 46% 5.0 mph WNW8.0 kmh WNW 6.0 mph9.7 kmh 30.13 in1020.3 mb 0.00 in0.0 mm 0.00 in0.0 mm 0.02 in0.5 mm
02:35 PM 65.2°F18.4°C 43.3°F6.3°C 45% 7.0 mph W11.3 kmh W 12.0 mph19.3 kmh 30.13 in1020.3 mb 0.00 in0.0 mm 0.00 in0.0 mm 0.02 in0.5 mm
02:40 PM 65.2°F18.4°C 43.8°F6.6°C 46% 3.0 mph SSW4.8 kmh SSW 7.0 mph11.3 kmh 30.14 in1020.7 mb 0.00 in0.0 mm 0.00 in0.0 mm 0.02 in0.5 mm
02:45 PM 65.6°F18.7°C 43.0°F6.1°C 44% 3.0 mph SW4.8 kmh SW 6.0 mph9.7 kmh 30.13 in1020.3 mb 0.00 in0.0 mm 0.00 in0.0 mm 0.02 in0.5 mm
02:50 PM 66.1°F18.9°C 44.1°F6.7°C 45% 4.0 mph WSW6.4 kmh WSW 6.0 mph9.7 kmh 30.13 in1020.3 mb 0.00 in0.0 mm 0.00 in0.0 mm 0.02 in0.5 mm
02:55 PM 66.7°F19.3°C 44.6°F7.0°C 45% 4.0 mph W6.4 kmh W 6.0 mph9.7 kmh 30.13 in1020.3 mb 0.00 in0.0 mm 0.00 in0.0 mm 0.02 in0.5 mm
03:00 PM 66.5°F19.2°C 43.3°F6.3°C 43% 1.0 mph W1.6 kmh W 7.0 mph11.3 kmh 30.13 in1020.3 mb 0.00 in0.0 mm 0.00 in0.0 mm 0.02 in0.5 mm
03:05 PM 66.4°F19.1°C 44.4°F6.9°C 45% 10.0 mph WSW16.1 kmh WSW 10.0 mph16.1 kmh 30.13 in1020.3 mb 0.00 in0.0 mm 0.00 in0.0 mm 0.02 in0.5 mm
03:10 PM 66.3°F19.1°C 44.8°F7.1°C 46% 12.0 mph SW19.3 kmh SW 12.0 mph19.3 kmh 30.12 in1020.0 mb 0.00 in0.0 mm 0.00 in0.0 mm 0.02 in0.5 mm
03:15 PM 66.1°F18.9°C 44.1°F6.7°C 45% 6.0 mph W9.7 kmh W 12.0 mph19.3 kmh 30.12 in1020.0 mb 0.00 in0.0 mm 0.00 in0.0 mm 0.02 in0.5 mm
03:20 PM 65.7°F18.7°C 43.7°F6.5°C 45% 4.0 mph SW6.4 kmh SW 10.0 mph16.1 kmh 30.12 in1020.0 mb 0.00 in0.0 mm 0.00 in0.0 mm 0.02 in0.5 mm
03:25 PM 65.4°F18.6°C 44.0°F6.7°C 46% 3.0 mph NW4.8 kmh NW 5.0 mph8.0 kmh 30.11 in1019.6 mb 0.00 in0.0 mm 0.00 in0.0 mm 0.02 in0.5 mm
03:30 PM 65.5°F18.6°C 44.1°F6.7°C 46% 2.0 mph W3.2 kmh W 6.0 mph9.7 kmh 30.11 in1019.6 mb 0.00 in0.0 mm 0.00 in0.0 mm 0.02 in0.5 mm
03:35 PM 65.7°F18.7°C 43.7°F6.5°C 45% 4.0 mph SW6.4 kmh SW 5.0 mph8.0 kmh 30.11 in1019.6 mb 0.00 in0.0 mm 0.00 in0.0 mm 0.02 in0.5 mm
03:40 PM 65.4°F18.6°C 44.0°F6.7°C 46% 4.0 mph SW6.4 kmh SW 15.0 mph24.1 kmh 30.10 in1019.3 mb 0.00 in0.0 mm 0.00 in0.0 mm 0.02 in0.5 mm
03:45 PM 65.1°F18.4°C 44.3°F6.8°C 47% Calm Calm 10.0 mph16.1 kmh 30.10 in1019.3 mb 0.00 in0.0 mm 0.00 in0.0 mm 0.02 in0.5 mm
03:50 PM 65.2°F18.4°C 45.0°F7.2°C 48% 4.0 mph WSW6.4 kmh WSW 10.0 mph16.1 kmh 30.11 in1019.6 mb 0.00 in0.0 mm 0.00 in0.0 mm 0.02 in0.5 mm
03:55 PM 65.6°F18.7°C 44.2°F6.8°C 46% 4.0 mph W6.4 kmh W 5.0 mph8.0 kmh 30.11 in1019.6 mb 0.00 in0.0 mm 0.00 in0.0 mm 0.02 in0.5 mm
04:00 PM 66.0°F18.9°C 44.6°F7.0°C 46% 1.0 mph SSW1.6 kmh SSW 4.0 mph6.4 kmh 30.10 in1019.3 mb 0.00 in0.0 mm 0.00 in0.0 mm 0.02 in0.5 mm
04:05 PM 66.4°F19.1°C 44.9°F7.2°C 46% 4.0 mph WSW6.4 kmh WSW 5.0 mph8.0 kmh 30.11 in1019.6 mb 0.00 in0.0 mm 0.00 in0.0 mm 0.02 in0.5 mm
04:10 PM 66.4°F19.1°C 44.4°F6.9°C 45% 3.0 mph WSW4.8 kmh WSW 5.0 mph8.0 kmh 30.11 in1019.6 mb 0.00 in0.0 mm 0.00 in0.0 mm 0.02 in0.5 mm
04:15 PM 65.9°F18.8°C 44.5°F6.9°C 46% 2.0 mph W3.2 kmh W 6.0 mph9.7 kmh 30.11 in1019.6 mb 0.00 in0.0 mm 0.00 in0.0 mm 0.02 in0.5 mm
04:20 PM 65.4°F18.6°C 44.6°F7.0°C 47% 1.0 mph WNW1.6 kmh WNW 5.0 mph8.0 kmh 30.11 in1019.6 mb 0.00 in0.0 mm 0.00 in0.0 mm 0.02 in0.5 mm
04:25 PM 65.2°F18.4°C 43.8°F6.6°C 46% 2.0 mph WNW3.2 kmh WNW 5.0 mph8.0 kmh 30.11 in1019.6 mb 0.00 in0.0 mm 0.00 in0.0 mm 0.02 in0.5 mm
04:30 PM 65.0°F18.3°C 43.7°F6.5°C 46% 2.0 mph WSW3.2 kmh WSW 5.0 mph8.0 kmh 30.12 in1020.0 mb 0.00 in0.0 mm 0.00 in0.0 mm 0.02 in0.5 mm
04:35 PM 64.9°F18.3°C 45.2°F7.3°C 49% 2.0 mph N3.2 kmh N 3.0 mph4.8 kmh 30.12 in1020.0 mb 0.00 in0.0 mm 0.00 in0.0 mm 0.02 in0.5 mm
04:40 PM 64.6°F18.1°C 45.0°F7.2°C 49% 3.0 mph WNW4.8 kmh WNW 5.0 mph8.0 kmh 30.11 in1019.6 mb 0.00 in0.0 mm 0.00 in0.0 mm 0.02 in0.5 mm
04:45 PM 64.4°F18.0°C 44.8°F7.1°C 49% 3.0 mph WSW4.8 kmh WSW 5.0 mph8.0 kmh 30.11 in1019.6 mb 0.00 in0.0 mm 0.00 in0.0 mm 0.02 in0.5 mm
04:50 PM 63.8°F17.7°C 44.7°F7.1°C 50% 3.0 mph W4.8 kmh W 6.0 mph9.7 kmh 30.11 in1019.6 mb 0.00 in0.0 mm 0.00 in0.0 mm 0.02 in0.5 mm
04:55 PM 63.8°F17.7°C 45.3°F7.4°C 51% 1.0 mph WNW1.6 kmh WNW 5.0 mph8.0 kmh 30.11 in1019.6 mb 0.00 in0.0 mm 0.00 in0.0 mm 0.02 in0.5 mm
05:00 PM 64.1°F17.8°C 46.1°F7.8°C 52% 1.0 mph N1.6 kmh N 3.0 mph4.8 kmh 30.10 in1019.3 mb 0.00 in0.0 mm 0.00 in0.0 mm 0.02 in0.5 mm
05:05 PM 64.2°F17.9°C 45.1°F7.3°C 50% 1.0 mph WNW1.6 kmh WNW 3.0 mph4.8 kmh 30.10 in1019.3 mb 0.00 in0.0 mm 0.00 in0.0 mm 0.02 in0.5 mm
05:10 PM 64.5°F18.1°C 44.9°F7.2°C 49% 3.0 mph W4.8 kmh W 5.0 mph8.0 kmh 30.09 in1019.0 mb 0.00 in0.0 mm 0.00 in0.0 mm 0.02 in0.5 mm
05:15 PM 64.5°F18.1°C 45.4°F7.4°C 50% 3.0 mph WNW4.8 kmh WNW 4.0 mph6.4 kmh 30.10 in1019.3 mb 0.00 in0.0 mm 0.00 in0.0 mm 0.02 in0.5 mm
05:20 PM 64.5°F18.1°C 44.9°F7.2°C 49% 1.0 mph WNW1.6 kmh WNW 4.0 mph6.4 kmh 30.09 in1019.0 mb 0.00 in0.0 mm 0.00 in0.0 mm 0.02 in0.5 mm
05:25 PM 64.1°F17.8°C 45.0°F7.2°C 50% Calm Calm 3.0 mph4.8 kmh 30.10 in1019.3 mb 0.00 in0.0 mm 0.00 in0.0 mm 0.02 in0.5 mm
05:30 PM 63.6°F17.6°C 46.1°F7.8°C 53% 1.0 mph WNW1.6 kmh WNW 3.0 mph4.8 kmh 30.10 in1019.3 mb 0.00 in0.0 mm 0.00 in0.0 mm 0.02 in0.5 mm
05:35 PM 63.1°F17.3°C 46.1°F7.8°C 54% Calm Calm 2.0 mph3.2 kmh 30.10 in1019.3 mb 0.00 in0.0 mm 0.00 in0.0 mm 0.02 in0.5 mm
05:40 PM 62.8°F17.1°C 46.3°F7.9°C 55% Calm Calm 2.0 mph3.2 kmh 30.10 in1019.3 mb 0.00 in0.0 mm 0.00 in0.0 mm 0.02 in0.5 mm
05:45 PM 62.5°F16.9°C 45.6°F7.6°C 54% 1.0 mph WNW1.6 kmh WNW 3.0 mph4.8 kmh 30.10 in1019.3 mb 0.00 in0.0 mm 0.00 in0.0 mm 0.02 in0.5 mm
05:50 PM 62.3°F16.8°C 46.3°F7.9°C 56% Calm Calm 2.0 mph3.2 kmh 30.10 in1019.3 mb 0.00 in0.0 mm 0.00 in0.0 mm 0.02 in0.5 mm
05:55 PM 62.2°F16.8°C 46.3°F7.9°C 56% 1.0 mph WNW1.6 kmh WNW 1.0 mph1.6 kmh 30.10 in1019.3 mb 0.00 in0.0 mm 0.00 in0.0 mm 0.02 in0.5 mm
06:00 PM 62.0°F16.7°C 47.0°F8.3°C 58% Calm Calm 2.0 mph3.2 kmh 30.11 in1019.6 mb 0.00 in0.0 mm 0.00 in0.0 mm 0.02 in0.5 mm
06:05 PM 61.8°F16.6°C 45.9°F7.7°C 56% 1.0 mph WNW1.6 kmh WNW 1.0 mph1.6 kmh 30.10 in1019.3 mb 0.00 in0.0 mm 0.00 in0.0 mm 0.02 in0.5 mm
06:10 PM 61.5°F16.4°C 45.6°F7.6°C 56% Calm Calm 2.0 mph3.2 kmh 30.09 in1019.0 mb 0.00 in0.0 mm 0.00 in0.0 mm 0.02 in0.5 mm
06:15 PM 61.4°F16.3°C 46.4°F8.0°C 58% 2.0 mph W3.2 kmh W 3.0 mph4.8 kmh 30.09 in1019.0 mb 0.00 in0.0 mm 0.00 in0.0 mm 0.02 in0.5 mm
06:20 PM 61.2°F16.2°C 46.7°F8.2°C 59% Calm Calm 2.0 mph3.2 kmh 30.09 in1019.0 mb 0.00 in0.0 mm 0.00 in0.0 mm 0.02 in0.5 mm
06:25 PM 61.1°F16.2°C 47.1°F8.4°C 60% Calm Calm -- 30.10 in1019.3 mb 0.00 in0.0 mm 0.00 in0.0 mm 0.02 in0.5 mm
06:30 PM 60.9°F16.1°C 47.3°F8.5°C 61% Calm Calm 1.0 mph1.6 kmh 30.10 in1019.3 mb 0.00 in0.0 mm 0.00 in0.0 mm 0.02 in0.5 mm
06:35 PM 60.9°F16.1°C 47.3°F8.5°C 61% Calm Calm 1.0 mph1.6 kmh 30.10 in1019.3 mb 0.00 in0.0 mm 0.00 in0.0 mm 0.02 in0.5 mm
06:40 PM 60.7°F15.9°C 47.6°F8.7°C 62% Calm Calm 1.0 mph1.6 kmh 30.10 in1019.3 mb 0.00 in0.0 mm 0.00 in0.0 mm 0.02 in0.5 mm
06:45 PM 60.5°F15.8°C 48.2°F9.0°C 64% Calm Calm 1.0 mph1.6 kmh 30.10 in1019.3 mb 0.00 in0.0 mm 0.00 in0.0 mm 0.02 in0.5 mm
06:50 PM 60.4°F15.8°C 48.5°F9.2°C 65% Calm Calm 1.0 mph1.6 kmh 30.10 in1019.3 mb 0.00 in0.0 mm 0.00 in0.0 mm 0.02 in0.5 mm
06:55 PM 60.4°F15.8°C 48.9°F9.4°C 66% Calm Calm 1.0 mph1.6 kmh 30.10 in1019.3 mb 0.00 in0.0 mm 0.00 in0.0 mm 0.02 in0.5 mm
07:00 PM 60.3°F15.7°C 48.8°F9.3°C 66% Calm Calm 1.0 mph1.6 kmh 30.11 in1019.6 mb 0.00 in0.0 mm 0.00 in0.0 mm 0.02 in0.5 mm
07:05 PM 60.1°F15.6°C 48.2°F9.0°C 65% Calm Calm 2.0 mph3.2 kmh 30.10 in1019.3 mb 0.00 in0.0 mm 0.00 in0.0 mm 0.02 in0.5 mm
07:10 PM 60.0°F15.6°C 48.1°F8.9°C 65% 1.0 mph W1.6 kmh W 1.0 mph1.6 kmh 30.10 in1019.3 mb 0.00 in0.0 mm 0.00 in0.0 mm 0.02 in0.5 mm
07:15 PM 60.1°F15.6°C 48.2°F9.0°C 65% Calm Calm 1.0 mph1.6 kmh 30.10 in1019.3 mb 0.00 in0.0 mm 0.00 in0.0 mm 0.02 in0.5 mm
07:20 PM 60.1°F15.6°C 47.4°F8.6°C 63% Calm Calm -- 30.10 in1019.3 mb 0.00 in0.0 mm 0.00 in0.0 mm 0.02 in0.5 mm
07:25 PM 60.2°F15.7°C 47.9°F8.8°C 64% Calm Calm -- 30.11 in1019.6 mb 0.00 in0.0 mm 0.00 in0.0 mm 0.02 in0.5 mm
07:30 PM 60.2°F15.7°C 47.1°F8.4°C 62% Calm Calm -- 30.11 in1019.6 mb 0.00 in0.0 mm 0.00 in0.0 mm 0.02 in0.5 mm
07:35 PM 60.3°F15.7°C 47.2°F8.4°C 62% Calm Calm -- 30.11 in1019.6 mb 0.00 in0.0 mm 0.00 in0.0 mm 0.02 in0.5 mm
07:40 PM 60.3°F15.7°C 48.0°F8.9°C 64% Calm Calm -- 30.11 in1019.6 mb 0.00 in0.0 mm 0.00 in0.0 mm 0.02 in0.5 mm
07:45 PM 60.2°F15.7°C 48.3°F9.1°C 65% Calm Calm -- 30.11 in1019.6 mb 0.00 in0.0 mm 0.00 in0.0 mm 0.02 in0.5 mm
07:50 PM 60.1°F15.6°C 49.1°F9.5°C 67% Calm Calm -- 30.11 in1019.6 mb 0.00 in0.0 mm 0.00 in0.0 mm 0.02 in0.5 mm
07:55 PM 60.0°F15.6°C 49.7°F9.8°C 69% Calm Calm -- 30.11 in1019.6 mb 0.00 in0.0 mm 0.00 in0.0 mm 0.02 in0.5 mm
08:00 PM 59.8°F15.4°C 49.9°F9.9°C 70% Calm Calm -- 30.12 in1020.0 mb 0.00 in0.0 mm 0.00 in0.0 mm 0.02 in0.5 mm
08:05 PM 59.6°F15.3°C 49.8°F9.9°C 70% Calm Calm -- 30.11 in1019.6 mb 0.00 in0.0 mm 0.00 in0.0 mm 0.02 in0.5 mm
08:10 PM 59.5°F15.3°C 50.0°F10.0°C 71% Calm Calm -- 30.11 in1019.6 mb 0.00 in0.0 mm 0.00 in0.0 mm 0.02 in0.5 mm
08:15 PM 59.3°F15.2°C 50.2°F10.1°C 72% 2.0 mph S3.2 kmh S 3.0 mph4.8 kmh 30.11 in1019.6 mb 0.00 in0.0 mm 0.00 in0.0 mm 0.02 in0.5 mm
08:20 PM 59.3°F15.2°C 49.8°F9.9°C 71% 2.0 mph S3.2 kmh S 3.0 mph4.8 kmh 30.11 in1019.6 mb 0.00 in0.0 mm 0.00 in0.0 mm 0.02 in0.5 mm
08:25 PM 59.2°F15.1°C 50.1°F10.1°C 72% 3.0 mph SSW4.8 kmh SSW 4.0 mph6.4 kmh 30.11 in1019.6 mb 0.00 in0.0 mm 0.00 in0.0 mm 0.02 in0.5 mm
08:30 PM 59.2°F15.1°C 49.7°F9.8°C 71% 1.0 mph S1.6 kmh S 4.0 mph6.4 kmh 30.11 in1019.6 mb 0.00 in0.0 mm 0.00 in0.0 mm 0.02 in0.5 mm
08:35 PM 59.3°F15.2°C 49.8°F9.9°C 71% 4.0 mph S6.4 kmh S 4.0 mph6.4 kmh 30.11 in1019.6 mb 0.00 in0.0 mm 0.00 in0.0 mm 0.02 in0.5 mm
08:40 PM 59.2°F15.1°C 49.7°F9.8°C 71% Calm Calm 4.0 mph6.4 kmh 30.11 in1019.6 mb 0.00 in0.0 mm 0.00 in0.0 mm 0.02 in0.5 mm
08:45 PM 59.1°F15.1°C 49.7°F9.8°C 71% 2.0 mph SW3.2 kmh SW 5.0 mph8.0 kmh 30.12 in1020.0 mb 0.00 in0.0 mm 0.00 in0.0 mm 0.02 in0.5 mm
08:50 PM 59.1°F15.1°C 49.7°F9.8°C 71% 1.0 mph S1.6 kmh S 4.0 mph6.4 kmh 30.11 in1019.6 mb 0.00 in0.0 mm 0.00 in0.0 mm 0.02 in0.5 mm
08:55 PM 59.1°F15.1°C 49.7°F9.8°C 71% 2.0 mph S3.2 kmh S 4.0 mph6.4 kmh 30.11 in1019.6 mb 0.00 in0.0 mm 0.00 in0.0 mm 0.02 in0.5 mm
09:00 PM 59.0°F15.0°C 50.3°F10.2°C 73% 3.0 mph SE4.8 kmh SE 4.0 mph6.4 kmh 30.10 in1019.3 mb 0.00 in0.0 mm 0.00 in0.0 mm 0.02 in0.5 mm
09:05 PM 58.9°F14.9°C 50.2°F10.1°C 73% 2.0 mph SSW3.2 kmh SSW 5.0 mph8.0 kmh 30.10 in1019.3 mb 0.00 in0.0 mm 0.00 in0.0 mm 0.02 in0.5 mm
09:10 PM 58.7°F14.8°C 50.0°F10.0°C 73% 2.0 mph S3.2 kmh S 4.0 mph6.4 kmh 30.10 in1019.3 mb 0.00 in0.0 mm 0.00 in0.0 mm 0.02 in0.5 mm
09:15 PM 58.6°F14.8°C 50.3°F10.2°C 74% 3.0 mph SSW4.8 kmh SSW 5.0 mph8.0 kmh 30.10 in1019.3 mb 0.00 in0.0 mm 0.00 in0.0 mm 0.02 in0.5 mm
09:20 PM 58.5°F14.7°C 50.2°F10.1°C 74% 4.0 mph S6.4 kmh S 6.0 mph9.7 kmh 30.10 in1019.3 mb 0.00 in0.0 mm 0.00 in0.0 mm 0.02 in0.5 mm
09:25 PM 58.5°F14.7°C 50.6°F10.3°C 75% 2.0 mph SSW3.2 kmh SSW 4.0 mph6.4 kmh 30.11 in1019.6 mb 0.00 in0.0 mm 0.00 in0.0 mm 0.02 in0.5 mm
09:30 PM 58.3°F14.6°C 50.7°F10.4°C 76% 3.0 mph S4.8 kmh S 6.0 mph9.7 kmh 30.10 in1019.3 mb 0.00 in0.0 mm 0.00 in0.0 mm 0.02 in0.5 mm
09:35 PM 58.2°F14.6°C 50.3°F10.2°C 75% 3.0 mph S4.8 kmh S 7.0 mph11.3 kmh 30.10 in1019.3 mb 0.00 in0.0 mm 0.00 in0.0 mm 0.02 in0.5 mm
09:40 PM 58.1°F14.5°C 50.5°F10.3°C 76% 4.0 mph SSW6.4 kmh SSW 6.0 mph9.7 kmh 30.10 in1019.3 mb 0.00 in0.0 mm 0.00 in0.0 mm 0.02 in0.5 mm
09:45 PM 58.0°F14.4°C 50.4°F10.2°C 76% 4.0 mph S6.4 kmh S 6.0 mph9.7 kmh 30.10 in1019.3 mb 0.00 in0.0 mm 0.00 in0.0 mm 0.02 in0.5 mm
09:50 PM 57.9°F14.4°C 50.7°F10.4°C 77% 7.0 mph S11.3 kmh S 9.0 mph14.5 kmh 30.10 in1019.3 mb 0.00 in0.0 mm 0.00 in0.0 mm 0.02 in0.5 mm
09:55 PM 57.8°F14.3°C 50.6°F10.3°C 77% 6.0 mph SW9.7 kmh SW 7.0 mph11.3 kmh 30.10 in1019.3 mb 0.00 in0.0 mm 0.00 in0.0 mm 0.02 in0.5 mm
10:00 PM 57.7°F14.3°C 50.8°F10.4°C 78% 4.0 mph S6.4 kmh S 6.0 mph9.7 kmh 30.10 in1019.3 mb 0.00 in0.0 mm 0.00 in0.0 mm 0.02 in0.5 mm
10:05 PM 57.5°F14.2°C 50.6°F10.3°C 78% 4.0 mph SSW6.4 kmh SSW 7.0 mph11.3 kmh 30.10 in1019.3 mb 0.00 in0.0 mm 0.00 in0.0 mm 0.02 in0.5 mm
10:10 PM 57.4°F14.1°C 50.5°F10.3°C 78% 4.0 mph S6.4 kmh S 7.0 mph11.3 kmh 30.11 in1019.6 mb 0.00 in0.0 mm 0.00 in0.0 mm 0.02 in0.5 mm
10:15 PM 57.3°F14.1°C 50.4°F10.2°C 78% 4.0 mph SSW6.4 kmh SSW 10.0 mph16.1 kmh 30.11 in1019.6 mb 0.00 in0.0 mm 0.00 in0.0 mm 0.02 in0.5 mm
10:20 PM 57.2°F14.0°C 50.4°F10.2°C 78% 5.0 mph SW8.0 kmh SW 6.0 mph9.7 kmh 30.10 in1019.3 mb 0.00 in0.0 mm 0.00 in0.0 mm 0.02 in0.5 mm
10:25 PM 57.3°F14.1°C 50.4°F10.2°C 78% 4.0 mph S6.4 kmh S 6.0 mph9.7 kmh 30.10 in1019.3 mb 0.00 in0.0 mm 0.00 in0.0 mm 0.02 in0.5 mm
10:30 PM 57.3°F14.1°C 50.1°F10.1°C 77% 2.0 mph SSW3.2 kmh SSW 6.0 mph9.7 kmh 30.09 in1019.0 mb 0.00 in0.0 mm 0.00 in0.0 mm 0.02 in0.5 mm
10:35 PM 57.4°F14.1°C 50.2°F10.1°C 77% 2.0 mph SW3.2 kmh SW 6.0 mph9.7 kmh 30.10 in1019.3 mb 0.00 in0.0 mm 0.00 in0.0 mm 0.02 in0.5 mm
10:40 PM 57.4°F14.1°C 50.2°F10.1°C 77% 1.0 mph SSW1.6 kmh SSW 7.0 mph11.3 kmh 30.09 in1019.0 mb 0.00 in0.0 mm 0.00 in0.0 mm 0.02 in0.5 mm
10:45 PM 57.4°F14.1°C 50.2°F10.1°C 77% 4.0 mph SSW6.4 kmh SSW 6.0 mph9.7 kmh 30.10 in1019.3 mb 0.00 in0.0 mm 0.00 in0.0 mm 0.02 in0.5 mm
10:50 PM 57.3°F14.1°C 50.4°F10.2°C 78% 4.0 mph SSW6.4 kmh SSW 8.0 mph12.9 kmh 30.10 in1019.3 mb 0.00 in0.0 mm 0.00 in0.0 mm 0.02 in0.5 mm
10:55 PM 57.3°F14.1°C 50.4°F10.2°C 78% 3.0 mph SSW4.8 kmh SSW 6.0 mph9.7 kmh 30.10 in1019.3 mb 0.00 in0.0 mm 0.00 in0.0 mm 0.02 in0.5 mm
11:00 PM 57.3°F14.1°C 50.4°F10.2°C 78% 2.0 mph SW3.2 kmh SW 7.0 mph11.3 kmh 30.11 in1019.6 mb 0.00 in0.0 mm 0.00 in0.0 mm 0.02 in0.5 mm
11:05 PM 57.2°F14.0°C 50.7°F10.4°C 79% 2.0 mph SW3.2 kmh SW 7.0 mph11.3 kmh 30.10 in1019.3 mb 0.00 in0.0 mm 0.00 in0.0 mm 0.02 in0.5 mm
11:10 PM 57.2°F14.0°C 50.7°F10.4°C 79% 3.0 mph SW4.8 kmh SW 7.0 mph11.3 kmh 30.11 in1019.6 mb 0.00 in0.0 mm 0.00 in0.0 mm 0.02 in0.5 mm
11:15 PM 57.1°F13.9°C 50.6°F10.3°C 79% 4.0 mph SW6.4 kmh SW 6.0 mph9.7 kmh 30.10 in1019.3 mb 0.00 in0.0 mm 0.00 in0.0 mm 0.02 in0.5 mm
11:20 PM 57.0°F13.9°C 50.8°F10.4°C 80% 1.0 mph WSW1.6 kmh WSW 7.0 mph11.3 kmh 30.11 in1019.6 mb 0.00 in0.0 mm 0.00 in0.0 mm 0.02 in0.5 mm
11:25 PM 56.8°F13.8°C 51.3°F10.7°C 82% 1.0 mph SW1.6 kmh SW 6.0 mph9.7 kmh 30.11 in1019.6 mb 0.00 in0.0 mm 0.00 in0.0 mm 0.02 in0.5 mm
11:30 PM 56.6°F13.7°C 50.8°F10.4°C 81% 3.0 mph SW4.8 kmh SW 6.0 mph9.7 kmh 30.11 in1019.6 mb 0.00 in0.0 mm 0.00 in0.0 mm 0.02 in0.5 mm
11:35 PM 56.5°F13.6°C 51.0°F10.6°C 82% 3.0 mph SW4.8 kmh SW 5.0 mph8.0 kmh 30.10 in1019.3 mb 0.00 in0.0 mm 0.00 in0.0 mm 0.02 in0.5 mm
11:40 PM 56.4°F13.6°C 50.6°F10.3°C 81% 3.0 mph SW4.8 kmh SW 6.0 mph9.7 kmh 30.11 in1019.6 mb 0.00 in0.0 mm 0.00 in0.0 mm 0.02 in0.5 mm
11:45 PM 56.4°F13.6°C 50.9°F10.5°C 82% 3.0 mph SW4.8 kmh SW 5.0 mph8.0 kmh 30.11 in1019.6 mb 0.01 in0.3 mm 0.12 in3.0 mm 0.01 in0.3 mm
11:50 PM 56.2°F13.4°C 50.7°F10.4°C 82% 4.0 mph SW6.4 kmh SW 6.0 mph9.7 kmh 30.11 in1019.6 mb 0.01 in0.3 mm 0.00 in0.0 mm 0.01 in0.3 mm
11:55 PM 56.0°F13.3°C 50.5°F10.3°C 82% 4.0 mph SW6.4 kmh SW 6.0 mph9.7 kmh 30.11 in1019.6 mb 0.01 in0.3 mm 0.00 in0.0 mm 0.01 in0.3 mm